createdAt,value
2017-06-23T00:00:49.007Z,45.21
2017-06-23T00:01:58.922Z,45.04
2017-06-23T00:03:08.523Z,44.95
2017-06-23T00:04:17.831Z,45.04
2017-06-23T00:05:28.053Z,45.14
2017-06-23T00:06:38.296Z,45.12
2017-06-23T00:07:48.514Z,45.21
2017-06-23T00:08:58.144Z,45.21
2017-06-23T00:10:08.065Z,45.02
2017-06-23T00:11:17.976Z,45.04
2017-06-23T00:12:27.587Z,45.34
2017-06-23T00:13:36.891Z,44.64
2017-06-23T00:14:47.127Z,44.85
2017-06-23T00:15:57.036Z,44.95
2017-06-23T00:17:06.969Z,44.75
2017-06-23T00:18:17.183Z,45.04
2017-06-23T00:19:26.480Z,44.85
2017-06-23T00:20:36.706Z,44.95
2017-06-23T00:21:46.937Z,44.95
2017-06-23T00:22:56.839Z,45.24
2017-06-23T00:24:06.454Z,45.14
2017-06-23T00:25:16.376Z,45.14
2017-06-23T00:26:25.993Z,45.14
2017-06-23T00:27:35.593Z,44.95
2017-06-23T00:28:45.510Z,44.95
2017-06-23T00:29:55.730Z,44.95
2017-06-23T00:31:05.944Z,45.12
2017-06-23T00:32:15.255Z,45.14
2017-06-23T00:33:25.472Z,44.46
2017-06-23T00:34:35.078Z,44.37
2017-06-23T00:35:45.287Z,44.56
2017-06-23T00:36:55.194Z,44.65
2017-06-23T00:38:04.795Z,44.46
2017-06-23T00:39:14.720Z,44.37
2017-06-23T00:40:24.320Z,44.46
2017-06-23T00:41:34.540Z,44.17
2017-06-23T00:42:43.848Z,44.27
2017-06-23T00:43:54.070Z,44.37
2017-06-23T00:45:04.002Z,44.27
2017-06-23T00:46:13.915Z,44.65
2017-06-23T00:47:23.825Z,44.27
2017-06-23T00:48:34.035Z,44.37
2017-06-23T00:49:43.943Z,44.27
2017-06-23T00:50:53.851Z,44.37
2017-06-23T00:52:02.868Z,44.46
2017-06-23T00:53:13.096Z,44.37
2017-06-23T00:54:23.347Z,44.37
2017-06-23T00:55:33.262Z,44.56
2017-06-23T00:56:43.173Z,44.56
2017-06-23T00:57:52.489Z,44.56
2017-06-23T00:59:02.411Z,44.56
2017-06-23T01:00:12.322Z,44.46
2017-06-23T01:01:22.537Z,44.37
2017-06-23T01:02:32.458Z,44.46
2017-06-23T01:03:42.699Z,44.37
2017-06-23T01:04:52.310Z,44.65
2017-06-23T01:06:01.917Z,44.65
2017-06-23T01:07:12.140Z,44.65
2017-06-23T01:08:22.363Z,44.65
2017-06-23T01:09:32.278Z,44.17
2017-06-23T01:10:42.191Z,44.27
2017-06-23T01:11:52.115Z,44.56
2017-06-23T01:13:02.030Z,44.37
2017-06-23T01:14:11.953Z,44.56
2017-06-23T01:15:21.563Z,44.27
2017-06-23T01:16:31.475Z,44.27
2017-06-23T01:17:41.380Z,44.37
2017-06-23T01:18:51.606Z,44.56
2017-06-23T01:20:01.815Z,44.46
2017-06-23T01:21:11.113Z,44.37
2017-06-23T01:22:20.720Z,44.37
2017-06-23T01:23:30.351Z,44.27
2017-06-23T01:24:40.279Z,44.27
2017-06-23T01:25:50.509Z,44.37
2017-06-23T01:26:59.813Z,44.27
2017-06-23T01:28:09.428Z,44.37
2017-06-23T01:29:19.023Z,44.17
2017-06-23T01:30:28.421Z,44.65
2017-06-23T01:31:38.642Z,44.37
2017-06-23T01:32:48.873Z,44.56
2017-06-23T01:33:58.791Z,44.37
2017-06-23T01:35:09.005Z,44.17
2017-06-23T01:36:18.926Z,44.37
2017-06-23T01:37:28.557Z,44.37
2017-06-23T01:38:38.156Z,44.46
2017-06-23T01:39:48.077Z,44.17
2017-06-23T01:40:57.988Z,44.27
2017-06-23T01:42:06.979Z,44.27
2017-06-23T01:43:16.900Z,44.46
2017-06-23T01:44:26.816Z,44.37
2017-06-23T01:45:36.731Z,44.46
2017-06-23T01:46:46.655Z,44.27
2017-06-23T01:47:56.866Z,44.37
2017-06-23T01:49:06.474Z,44.37
2017-06-23T01:50:16.380Z,44.46
2017-06-23T01:51:26.598Z,44.27
2017-06-23T01:52:37.199Z,44.27
2017-06-23T01:53:47.444Z,44.27
2017-06-23T01:54:57.348Z,44.27
2017-06-23T01:56:06.647Z,44.27
2017-06-23T01:57:16.258Z,44.37
2017-06-23T01:58:25.851Z,44.56
2017-06-23T01:59:35.784Z,44.46
2017-06-23T02:00:45.702Z,44.54
2017-06-23T02:01:55.912Z,44.54
2017-06-23T02:03:05.511Z,44.44
2017-06-23T02:04:15.732Z,44.37
2017-06-23T02:05:25.959Z,44.44
2017-06-23T02:06:35.862Z,44.34
2017-06-23T02:07:45.776Z,44.17
2017-06-23T02:08:56.000Z,44.46
2017-06-23T02:10:05.316Z,44.56
2017-06-23T02:11:14.917Z,44.27
2017-06-23T02:12:25.137Z,44.46
2017-06-23T02:13:34.750Z,44.37
2017-06-23T02:14:44.353Z,44.46
2017-06-23T02:15:53.650Z,44.56
2017-06-23T02:17:03.868Z,43.98
2017-06-23T02:18:13.482Z,44.17
2017-06-23T02:19:23.091Z,44.17
2017-06-23T02:20:33.319Z,44.17
2017-06-23T02:21:42.938Z,44.37
2017-06-23T02:22:52.867Z,44.27
2017-06-23T02:24:03.085Z,44.46
2017-06-23T02:25:13.000Z,44.27
2017-06-23T02:26:22.925Z,43.78
2017-06-23T02:27:32.831Z,44.17
2017-06-23T02:28:42.756Z,43.78
2017-06-23T02:29:52.377Z,43.88
2017-06-23T02:31:02.605Z,44.07
2017-06-23T02:32:12.521Z,43.88
2017-06-23T02:33:22.750Z,43.9
2017-06-23T02:34:32.972Z,44.09
2017-06-23T02:35:42.885Z,43.78
2017-06-23T02:36:52.800Z,43.78
2017-06-23T02:38:02.724Z,43.98
2017-06-23T02:39:12.632Z,44.07
2017-06-23T02:40:22.546Z,44.09
2017-06-23T02:41:32.450Z,43.8
2017-06-23T02:42:42.371Z,43.8
2017-06-23T02:43:51.974Z,44
2017-06-23T02:45:01.894Z,43.8
2017-06-23T02:46:11.814Z,43.78
2017-06-23T02:47:21.736Z,43.8
2017-06-23T02:48:31.875Z,43.98
2017-06-23T02:49:42.101Z,43.88
2017-06-23T02:50:52.699Z,44.07
2017-06-23T02:52:02.315Z,43.78
2017-06-23T02:53:12.230Z,43.88
2017-06-23T02:54:21.533Z,44.09
2017-06-23T02:55:31.448Z,43.9
2017-06-23T02:56:41.374Z,43.88
2017-06-23T02:57:51.279Z,43.78
2017-06-23T02:59:01.506Z,43.8
2017-06-23T03:00:11.414Z,43.98
2017-06-23T03:01:21.320Z,44.27
2017-06-23T03:02:31.229Z,44.37
2017-06-23T03:03:40.224Z,44.17
2017-06-23T03:04:50.445Z,44.07
2017-06-23T03:06:00.347Z,44.17
2017-06-23T03:07:10.583Z,44.37
2017-06-23T03:08:20.811Z,44.17
2017-06-23T03:09:30.735Z,44.37
2017-06-23T03:10:40.953Z,44.37
2017-06-23T03:11:50.564Z,44.37
2017-06-23T03:13:00.486Z,44.37
2017-06-23T03:14:10.103Z,44.37
2017-06-23T03:15:20.324Z,44.07
2017-06-23T03:16:30.567Z,44.07
2017-06-23T03:17:40.473Z,44.17
2017-06-23T03:18:50.387Z,44.17
2017-06-23T03:19:59.688Z,44.07
2017-06-23T03:21:09.311Z,44.37
2017-06-23T03:22:19.217Z,44.27
2017-06-23T03:23:29.474Z,44.37
2017-06-23T03:24:39.701Z,44.46
2017-06-23T03:25:49.955Z,44.37
2017-06-23T03:26:59.863Z,44.37
2017-06-23T03:28:10.081Z,44.37
2017-06-23T03:29:20.009Z,44.37
2017-06-23T03:30:30.233Z,44.07
2017-06-23T03:31:40.475Z,44.07
2017-06-23T03:32:50.391Z,44.17
2017-06-23T03:33:59.400Z,44.17
2017-06-23T03:35:09.323Z,43.98
2017-06-23T03:36:19.557Z,43.98
2017-06-23T03:37:29.787Z,44.07
2017-06-23T03:38:39.714Z,44.17
2017-06-23T03:39:49.405Z,44.17
2017-06-23T03:40:59.033Z,44.17
2017-06-23T03:42:08.658Z,44.07
2017-06-23T03:43:18.267Z,44.17
2017-06-23T03:44:28.167Z,44.17
2017-06-23T03:45:38.086Z,44.07
2017-06-23T03:46:47.384Z,44.07
2017-06-23T03:47:57.595Z,44.17
2017-06-23T03:49:07.815Z,44.07
2017-06-23T03:50:17.426Z,44.37
2017-06-23T03:51:27.347Z,44.37
2017-06-23T03:52:37.261Z,44.37
2017-06-23T03:53:47.175Z,44.37
2017-06-23T03:54:57.391Z,44.46
2017-06-23T03:56:07.315Z,44.17
2017-06-23T03:57:16.929Z,44.27
2017-06-23T03:58:26.870Z,43.78
2017-06-23T03:59:36.474Z,43.78
2017-06-23T04:00:46.689Z,43.88
2017-06-23T04:01:56.602Z,43.78
2017-06-23T04:03:06.221Z,43.78
2017-06-23T04:04:16.441Z,44.07
2017-06-23T04:05:26.666Z,43.88
2017-06-23T04:06:36.896Z,43.88
2017-06-23T04:07:47.150Z,43.88
2017-06-23T04:08:57.059Z,43.98
2017-06-23T04:10:06.976Z,43.98
2017-06-23T04:11:16.607Z,43.98
2017-06-23T04:12:26.513Z,43.78
2017-06-23T04:13:36.136Z,43.78
2017-06-23T04:14:45.437Z,43.78
2017-06-23T04:15:55.344Z,43.98
2017-06-23T04:17:05.266Z,43.88
2017-06-23T04:18:15.182Z,43.98
2017-06-23T04:19:24.802Z,43.88
2017-06-23T04:20:34.405Z,44
2017-06-23T04:21:44.332Z,43.98
2017-06-23T04:22:54.296Z,44.09
2017-06-23T04:24:04.211Z,43.9
2017-06-23T04:25:13.807Z,44
2017-06-23T04:26:23.722Z,43.88
2017-06-23T04:27:33.665Z,43.9
2017-06-23T04:28:43.915Z,43.9
2017-06-23T04:29:54.137Z,43.9
2017-06-23T04:31:04.064Z,43.9
2017-06-23T04:32:13.701Z,44.09
2017-06-23T04:33:23.959Z,44.09
2017-06-23T04:34:33.889Z,44.09
2017-06-23T04:35:43.537Z,43.9
2017-06-23T04:36:53.766Z,43.88
2017-06-23T04:38:03.376Z,44.09
2017-06-23T04:39:13.289Z,44.09
2017-06-23T04:40:23.201Z,44.07
2017-06-23T04:41:33.433Z,43.9
2017-06-23T04:42:43.660Z,43.9
2017-06-23T04:43:53.908Z,43.8
2017-06-23T04:45:03.874Z,43.78
2017-06-23T04:46:13.785Z,43.49
2017-06-23T04:47:23.685Z,44.17
2017-06-23T04:48:33.323Z,44.37
2017-06-23T04:49:43.585Z,44.17
2017-06-23T04:50:53.820Z,44.17
2017-06-23T04:52:03.429Z,44.17
2017-06-23T04:53:13.342Z,44.07
2017-06-23T04:54:22.954Z,44.07
2017-06-23T04:55:33.175Z,44.17
2017-06-23T04:56:42.788Z,44.17
2017-06-23T04:57:52.997Z,44.27
2017-06-23T04:59:02.905Z,44.17
2017-06-23T05:00:12.823Z,44.17
2017-06-23T05:01:22.451Z,44.27
2017-06-23T05:02:32.385Z,44.27
2017-06-23T05:03:42.625Z,44.37
2017-06-23T05:04:52.259Z,44.37
2017-06-23T05:06:01.582Z,44.37
2017-06-23T05:07:11.808Z,44.07
2017-06-23T05:08:22.037Z,43.78
2017-06-23T05:09:31.963Z,43.78
2017-06-23T05:10:41.926Z,43.88
2017-06-23T05:11:52.170Z,43.78
2017-06-23T05:13:01.787Z,43.78
2017-06-23T05:14:11.085Z,44.07
2017-06-23T05:15:21.012Z,43.88
2017-06-23T05:16:30.937Z,43.78
2017-06-23T05:17:40.844Z,43.98
2017-06-23T05:18:50.448Z,43.78
2017-06-23T05:20:00.662Z,43.88
2017-06-23T05:21:10.881Z,44.17
2017-06-23T05:22:20.793Z,44.37
2017-06-23T05:23:31.019Z,44.37
2017-06-23T05:24:40.931Z,44.17
2017-06-23T05:25:50.230Z,44.17
2017-06-23T05:26:59.840Z,44.07
2017-06-23T05:28:09.747Z,44.17
2017-06-23T05:29:19.052Z,44.07
2017-06-23T05:30:28.044Z,44.17
2017-06-23T05:31:37.963Z,44.17
2017-06-23T05:32:48.187Z,44.27
2017-06-23T05:33:57.800Z,44.37
2017-06-23T05:35:07.420Z,44.37
2017-06-23T05:36:16.733Z,43.88
2017-06-23T05:37:26.340Z,43.88
2017-06-23T05:38:35.947Z,43.98
2017-06-23T05:39:45.550Z,43.88
2017-06-23T05:40:55.765Z,43.8
2017-06-23T05:42:05.369Z,43.68
2017-06-23T05:43:14.985Z,43.22
2017-06-23T05:44:24.589Z,43.02
2017-06-23T05:45:34.507Z,43.41
2017-06-23T05:46:44.420Z,43.12
2017-06-23T05:47:53.726Z,43.02
2017-06-23T05:49:03.336Z,42.74
2017-06-23T05:50:13.591Z,42.83
2017-06-23T05:51:23.499Z,42.76
2017-06-23T05:52:33.399Z,42.66
2017-06-23T05:53:43.000Z,42.36
2017-06-23T05:54:53.253Z,42.27
2017-06-23T05:56:02.561Z,42.49
2017-06-23T05:57:12.492Z,42.27
2017-06-23T05:58:22.102Z,42
2017-06-23T05:59:32.029Z,42.1
2017-06-23T06:00:41.340Z,42.1
2017-06-23T06:01:50.345Z,42.29
2017-06-23T06:03:00.265Z,41.9
2017-06-23T06:04:10.502Z,42
2017-06-23T06:05:20.424Z,42
2017-06-23T06:06:30.348Z,42.1
2017-06-23T06:07:40.260Z,42.19
2017-06-23T06:08:49.873Z,41.8
2017-06-23T06:09:59.788Z,41.51
2017-06-23T06:11:10.021Z,41.14
2017-06-23T06:12:19.944Z,40.95
2017-06-23T06:13:29.857Z,40.95
2017-06-23T06:14:39.775Z,41.06
2017-06-23T06:15:49.075Z,40.88
2017-06-23T06:16:59.003Z,41.06
2017-06-23T06:18:08.925Z,41.06
2017-06-23T06:19:18.842Z,41.06
2017-06-23T06:20:28.758Z,41.16
2017-06-23T06:21:38.373Z,40.68
2017-06-23T06:22:47.987Z,40.78
2017-06-23T06:23:58.212Z,40.68
2017-06-23T06:25:08.134Z,40.88
2017-06-23T06:26:18.068Z,40.89
2017-06-23T06:27:27.986Z,40.78
2017-06-23T06:28:37.307Z,40.8
2017-06-23T06:29:47.250Z,40.78
2017-06-23T06:30:56.872Z,40.89
2017-06-23T06:32:06.176Z,40.99
2017-06-23T06:33:16.101Z,40.89
2017-06-23T06:34:26.013Z,40.7
2017-06-23T06:35:35.923Z,40.8
2017-06-23T06:36:45.222Z,40.7
2017-06-23T06:37:55.186Z,40.89
2017-06-23T06:39:05.131Z,40.99
2017-06-23T06:40:14.744Z,40.89
2017-06-23T06:41:24.695Z,40.99
2017-06-23T06:42:34.928Z,40.8
2017-06-23T06:43:45.158Z,40.8
2017-06-23T06:44:55.084Z,40.8
2017-06-23T06:46:05.023Z,40.8
2017-06-23T06:49:47.639Z,40.7
2017-06-23T06:50:57.859Z,41.09
2017-06-23T06:52:08.089Z,40.89
2017-06-23T06:53:18.415Z,41.19
2017-06-23T06:57:00.741Z,40.89
2017-06-23T06:58:10.965Z,41.19
2017-06-23T07:01:54.455Z,41.09
2017-06-23T07:03:05.907Z,41.19
2017-06-23T07:04:16.134Z,41.09
2017-06-23T07:05:26.052Z,40.97
2017-06-23T07:09:08.040Z,40.8
2017-06-23T07:10:17.959Z,40.89
2017-06-23T07:11:27.913Z,40.99
2017-06-23T07:12:37.829Z,40.52
2017-06-23T07:13:47.737Z,40.31
2017-06-23T07:14:57.667Z,40.42
2017-06-23T07:16:07.295Z,40.23
2017-06-23T07:17:17.517Z,39.94
2017-06-23T07:18:27.132Z,39.45
2017-06-23T07:19:36.436Z,39.86
2017-06-23T07:20:46.667Z,38.98
2017-06-23T07:21:56.324Z,38.61
2017-06-23T07:23:05.956Z,38.81
2017-06-23T07:24:15.876Z,38.9
2017-06-23T07:25:26.142Z,38.61
2017-06-23T07:26:35.795Z,38.61
2017-06-23T07:27:45.418Z,38.61
2017-06-23T07:28:55.052Z,38.81
2017-06-23T07:30:04.993Z,38.9
2017-06-23T07:31:15.248Z,38.04
2017-06-23T07:32:24.869Z,38.04
2017-06-23T07:33:35.136Z,38.43
2017-06-23T07:34:45.059Z,38.16
2017-06-23T07:35:54.986Z,37.96
2017-06-23T07:37:04.609Z,38.26
2017-06-23T07:38:14.240Z,38.06
2017-06-23T07:39:23.250Z,37.87
2017-06-23T07:40:32.878Z,37.87
2017-06-23T07:41:43.105Z,37.57
2017-06-23T07:42:53.036Z,37.6
2017-06-23T07:44:03.273Z,37.21
2017-06-23T07:45:13.206Z,36.34
2017-06-23T07:46:23.128Z,35.77
2017-06-23T07:47:32.775Z,34.81
2017-06-23T07:48:42.108Z,34.55
2017-06-23T07:49:51.432Z,33.79
2017-06-23T07:51:00.748Z,33.41
2017-06-23T07:52:10.994Z,33.14
2017-06-23T07:53:20.910Z,33.14
2017-06-23T07:54:30.832Z,32.84
2017-06-23T07:55:40.457Z,32.76
2017-06-23T07:56:50.375Z,33.15
2017-06-23T07:58:00.364Z,33.53
2017-06-23T07:59:10.285Z,33.72
2017-06-23T08:00:20.531Z,34.01
2017-06-23T08:01:30.453Z,34.21
2017-06-23T08:02:40.687Z,33.82
2017-06-23T08:03:50.908Z,34.01
2017-06-23T08:05:00.824Z,34
2017-06-23T08:06:10.760Z,33.8
2017-06-23T08:07:20.677Z,34.01
2017-06-23T08:08:30.600Z,33.82
2017-06-23T08:09:40.824Z,33.82
2017-06-23T08:10:50.453Z,33.72
2017-06-23T08:12:00.375Z,32.95
2017-06-23T08:13:10.631Z,32.86
2017-06-23T08:14:20.266Z,32.78
2017-06-23T08:15:29.873Z,32.59
2017-06-23T08:16:39.800Z,32.3
2017-06-23T08:17:49.424Z,32.02
2017-06-23T08:18:59.044Z,31.82
2017-06-23T08:20:09.295Z,31.53
2017-06-23T08:21:19.289Z,31.35
2017-06-23T08:22:29.229Z,31.07
2017-06-23T08:23:39.164Z,30.77
2017-06-23T08:24:49.084Z,30.79
2017-06-23T08:25:59.314Z,30.88
2017-06-23T08:27:09.581Z,31.36
2017-06-23T08:28:19.222Z,31.76
2017-06-23T08:29:28.832Z,31.94
2017-06-23T08:30:38.767Z,32.14
2017-06-23T08:31:49.010Z,32.51
2017-06-23T08:32:58.934Z,32.71
2017-06-23T08:34:08.558Z,33
2017-06-23T08:35:19.042Z,33.38
2017-06-23T08:36:28.973Z,33.67
2017-06-23T08:37:38.293Z,34.05
2017-06-23T08:38:47.610Z,34.05
2017-06-23T08:39:57.546Z,34.52
2017-06-23T08:41:06.871Z,34.33
2017-06-23T08:42:16.203Z,34.42
2017-06-23T08:43:26.146Z,35
2017-06-23T08:44:36.101Z,34.8
2017-06-23T08:45:45.792Z,35
2017-06-23T08:46:55.720Z,35
2017-06-23T08:48:05.409Z,35.1
2017-06-23T08:49:15.335Z,35.78
2017-06-23T08:50:25.269Z,35.57
2017-06-23T08:51:35.204Z,35.66
2017-06-23T08:52:45.137Z,35.76
2017-06-23T08:53:54.763Z,35.75
2017-06-23T08:55:04.410Z,36.06
2017-06-23T08:56:14.663Z,35.94
2017-06-23T08:57:24.588Z,36.33
2017-06-23T08:58:34.529Z,36.53
2017-06-23T08:59:44.754Z,36.53
2017-06-23T09:00:55.005Z,36.53
2017-06-23T09:02:04.957Z,36.71
2017-06-23T09:03:15.194Z,36.71
2017-06-23T09:04:24.549Z,36.8
2017-06-23T09:05:34.790Z,36.9
2017-06-23T09:06:45.063Z,37.27
2017-06-23T09:07:55.001Z,37.29
2017-06-23T09:09:04.622Z,37.08
2017-06-23T09:10:14.242Z,37.27
2017-06-23T09:11:24.469Z,37.57
2017-06-23T09:12:34.733Z,37.37
2017-06-23T09:13:44.047Z,37.75
2017-06-23T09:14:53.691Z,37.85
2017-06-23T09:16:03.725Z,38.04
2017-06-23T09:17:13.377Z,38.12
2017-06-23T09:18:23.691Z,38.22
2017-06-23T09:19:33.048Z,37.93
2017-06-23T09:20:43.300Z,38.32
2017-06-23T09:21:53.262Z,38.22
2017-06-23T09:23:02.882Z,38.22
2017-06-23T09:24:13.117Z,38.32
2017-06-23T09:25:22.731Z,38.32
2017-06-23T09:26:32.659Z,38.51
2017-06-23T09:27:42.301Z,38.59
2017-06-23T09:28:52.251Z,39.1
2017-06-23T09:30:01.865Z,38.79
2017-06-23T09:31:11.221Z,39.18
2017-06-23T09:32:21.167Z,39.08
2017-06-23T09:33:31.118Z,38.89
2017-06-23T09:34:41.065Z,38.79
2017-06-23T09:35:50.382Z,39.08
2017-06-23T09:37:00.603Z,38.89
2017-06-23T09:38:10.534Z,38.89
2017-06-23T09:39:20.161Z,38.79
2017-06-23T09:40:30.390Z,38.98
2017-06-23T09:41:40.349Z,38.79
2017-06-23T09:42:50.303Z,38.98
2017-06-23T09:44:00.235Z,39.08
2017-06-23T09:45:09.859Z,38.98
2017-06-23T09:46:20.108Z,38.98
2017-06-23T09:47:30.337Z,38.77
2017-06-23T09:48:39.961Z,38.69
2017-06-23T09:49:49.906Z,38.69
2017-06-23T09:50:59.230Z,38.67
2017-06-23T09:52:09.856Z,38.67
2017-06-23T09:53:19.797Z,38.67
2017-06-23T09:54:28.814Z,38.77
2017-06-23T09:55:38.728Z,38.87
2017-06-23T09:56:48.960Z,38.96
2017-06-23T09:57:58.576Z,38.87
2017-06-23T09:59:08.503Z,39.16
2017-06-23T10:00:18.106Z,39.26
2017-06-23T10:01:27.416Z,39.55
2017-06-23T10:02:37.354Z,39.94
2017-06-23T10:03:46.663Z,39.84
2017-06-23T10:04:56.300Z,39.75
2017-06-23T10:06:05.609Z,39.72
2017-06-23T10:07:15.532Z,39.82
2017-06-23T10:08:25.156Z,39.82
2017-06-23T10:09:35.087Z,39.72
2017-06-23T10:10:45.036Z,39.84
2017-06-23T10:11:54.956Z,39.94
2017-06-23T10:13:04.876Z,39.92
2017-06-23T10:14:14.803Z,39.72
2017-06-23T10:15:24.793Z,39.92
2017-06-23T10:16:34.741Z,39.72
2017-06-23T10:17:44.365Z,39.62
2017-06-23T10:18:53.975Z,39.33
2017-06-23T10:20:03.897Z,40.11
2017-06-23T10:21:13.826Z,40.01
2017-06-23T10:22:23.445Z,39.92
2017-06-23T10:23:33.384Z,39.7
2017-06-23T10:24:43.012Z,40.09
2017-06-23T10:25:52.953Z,40
2017-06-23T10:27:03.179Z,40.39
2017-06-23T10:28:12.796Z,40.29
2017-06-23T10:29:23.031Z,40
2017-06-23T10:30:33.267Z,40.19
2017-06-23T10:31:42.885Z,40.19
2017-06-23T10:32:52.809Z,39.61
2017-06-23T10:34:02.751Z,40
2017-06-23T10:35:12.074Z,39.8
2017-06-23T10:36:22.336Z,40
2017-06-23T10:37:32.560Z,40
2017-06-23T10:38:42.474Z,40.09
2017-06-23T10:39:52.394Z,40
2017-06-23T10:41:02.010Z,39.31
2017-06-23T10:42:12.243Z,39.61
2017-06-23T10:43:22.550Z,40.09
2017-06-23T10:44:32.184Z,39.41
2017-06-23T10:45:42.112Z,39.31
2017-06-23T10:46:52.032Z,39.31
2017-06-23T10:48:01.954Z,39.41
2017-06-23T10:49:11.890Z,39.51
2017-06-23T10:50:21.824Z,39.31
2017-06-23T10:51:31.435Z,39.51
2017-06-23T10:52:41.359Z,40
2017-06-23T10:53:50.980Z,40.09
2017-06-23T10:55:00.909Z,40
2017-06-23T10:56:10.839Z,39.8
2017-06-23T10:57:20.779Z,39.9
2017-06-23T10:58:31.020Z,40
2017-06-23T10:59:40.326Z,40
2017-06-23T11:00:50.246Z,40
2017-06-23T11:01:59.896Z,40
2017-06-23T11:03:09.201Z,39.9
2017-06-23T11:04:19.144Z,39.9
2017-06-23T11:05:29.061Z,39.9
2017-06-23T11:06:38.979Z,40
2017-06-23T11:07:48.295Z,40
2017-06-23T11:08:57.915Z,39.7
2017-06-23T11:10:07.843Z,39.9
2017-06-23T11:11:18.063Z,39.9
2017-06-23T11:12:27.672Z,39.9
2017-06-23T11:13:37.916Z,39.9
2017-06-23T11:14:47.848Z,40
2017-06-23T11:15:57.777Z,40
2017-06-23T11:17:07.397Z,40.19
2017-06-23T11:18:16.702Z,40.19
2017-06-23T11:19:26.325Z,40.09
2017-06-23T11:20:36.256Z,40.29
2017-06-23T11:21:46.175Z,40.27
2017-06-23T11:22:56.114Z,40.17
2017-06-23T11:24:06.037Z,40.37
2017-06-23T11:25:15.980Z,40.27
2017-06-23T11:26:26.273Z,40.37
2017-06-23T11:27:35.887Z,40.17
2017-06-23T11:28:46.121Z,40.29
2017-06-23T11:29:56.051Z,40.27
2017-06-23T11:31:06.275Z,40.27
2017-06-23T11:32:15.890Z,40.27
2017-06-23T11:33:25.811Z,40.27
2017-06-23T11:34:35.428Z,40.37
2017-06-23T11:35:45.040Z,40.37
2017-06-23T11:36:54.659Z,40.37
2017-06-23T11:38:04.276Z,40.37
2017-06-23T11:39:14.233Z,40.47
2017-06-23T11:40:24.176Z,40.37
2017-06-23T11:41:33.812Z,40.27
2017-06-23T11:42:44.067Z,40.17
2017-06-23T11:43:53.697Z,40.27
2017-06-23T11:45:03.962Z,40.17
2017-06-23T11:46:13.897Z,40.08
2017-06-23T11:47:23.847Z,40.17
2017-06-23T11:48:33.489Z,40.17
2017-06-23T11:49:43.715Z,40.17
2017-06-23T11:50:53.658Z,40.27
2017-06-23T11:52:03.293Z,40.17
2017-06-23T11:53:12.901Z,40.17
2017-06-23T11:54:22.521Z,40.27
2017-06-23T11:55:31.820Z,40.47
2017-06-23T11:56:41.431Z,40.37
2017-06-23T11:57:51.663Z,40.17
2017-06-23T11:59:00.956Z,40.37
2017-06-23T12:00:11.183Z,40.47
2017-06-23T12:01:21.438Z,40.47
2017-06-23T12:02:30.452Z,40.37
2017-06-23T12:03:40.682Z,40.37
2017-06-23T12:04:50.600Z,40.37
2017-06-23T12:06:00.514Z,40.17
2017-06-23T12:07:10.120Z,40.56
2017-06-23T12:08:20.341Z,40.37
2017-06-23T12:09:29.947Z,40.27
2017-06-23T12:10:39.899Z,40.56
2017-06-23T12:11:49.518Z,40.37
2017-06-23T12:12:58.821Z,40.56
2017-06-23T12:14:08.742Z,40.37
2017-06-23T12:15:18.347Z,40.27
2017-06-23T12:16:27.660Z,40.27
2017-06-23T12:17:37.887Z,40.17
2017-06-23T12:18:47.813Z,40.17
2017-06-23T12:19:57.425Z,40.17
2017-06-23T12:21:07.662Z,40.27
2017-06-23T12:22:17.628Z,40.17
2017-06-23T12:23:27.885Z,40.37
2017-06-23T12:24:37.807Z,40.25
2017-06-23T12:25:48.031Z,40.35
2017-06-23T12:26:57.645Z,40.55
2017-06-23T12:28:07.576Z,40.35
2017-06-23T12:29:17.841Z,40.35
2017-06-23T12:30:27.455Z,40.37
2017-06-23T12:31:37.407Z,40.56
2017-06-23T12:32:47.349Z,40.25
2017-06-23T12:33:57.282Z,40.17
2017-06-23T12:35:07.509Z,40.17
2017-06-23T12:36:17.456Z,40.27
2017-06-23T12:37:27.381Z,40.17
2017-06-23T12:38:37.618Z,39.98
2017-06-23T12:39:47.547Z,39.98
2017-06-23T12:40:57.473Z,40.37
2017-06-23T12:42:07.083Z,40.17
2017-06-23T12:43:17.341Z,40.17
2017-06-23T12:44:26.963Z,40.17
2017-06-23T12:45:36.290Z,40.17
2017-06-23T12:46:46.523Z,40.17
2017-06-23T12:47:56.472Z,40.08
2017-06-23T12:49:06.414Z,40.17
2017-06-23T12:50:16.643Z,40.17
2017-06-23T12:51:26.563Z,40.27
2017-06-23T12:52:35.874Z,40.17
2017-06-23T12:53:45.522Z,40.16
2017-06-23T12:54:55.163Z,40.25
2017-06-23T12:56:05.073Z,40.17
2017-06-23T12:57:14.699Z,40.25
2017-06-23T12:58:24.323Z,40.27
2017-06-23T12:59:34.258Z,40.37
2017-06-23T13:00:44.481Z,40.27
2017-06-23T13:01:54.425Z,40.17
2017-06-23T13:03:04.354Z,40.08
2017-06-23T13:04:14.603Z,39.98
2017-06-23T13:05:24.231Z,40.08
2017-06-23T13:06:34.468Z,40.08
2017-06-23T13:07:44.418Z,40.08
2017-06-23T13:08:54.059Z,40.08
2017-06-23T13:10:04.298Z,40.08
2017-06-23T13:11:14.236Z,40.17
2017-06-23T13:12:24.170Z,40.27
2017-06-23T13:13:34.111Z,40.17
2017-06-23T13:14:44.039Z,40.27
2017-06-23T13:15:54.280Z,40.06
2017-06-23T13:17:04.201Z,40.17
2017-06-23T13:18:13.821Z,40.35
2017-06-23T13:19:23.727Z,40.16
2017-06-23T13:20:33.343Z,40.27
2017-06-23T13:21:43.270Z,40.16
2017-06-23T13:22:52.881Z,40.27
2017-06-23T13:24:03.105Z,40.16
2017-06-23T13:25:13.381Z,40.17
2017-06-23T13:26:23.320Z,40.16
2017-06-23T13:27:32.936Z,40.25
2017-06-23T13:28:43.164Z,40.16
2017-06-23T13:29:52.769Z,40.25
2017-06-23T13:31:02.381Z,40.16
2017-06-23T13:32:11.686Z,40.16
2017-06-23T13:33:21.295Z,40.17
2017-06-23T13:34:31.537Z,40.17
2017-06-23T13:35:41.821Z,40.16
2017-06-23T13:36:51.856Z,40.17
2017-06-23T13:38:01.514Z,40.25
2017-06-23T13:39:11.466Z,40.17
2017-06-23T13:40:21.100Z,40.16
2017-06-23T13:41:31.030Z,40.16
2017-06-23T13:42:40.965Z,40.25
2017-06-23T13:43:50.885Z,40.25
2017-06-23T13:45:00.810Z,40.35
2017-06-23T13:46:09.804Z,40.25
2017-06-23T13:47:19.732Z,40.35
2017-06-23T13:48:29.368Z,40.45
2017-06-23T13:49:38.977Z,40.35
2017-06-23T13:50:48.592Z,40.35
2017-06-23T13:51:58.827Z,40.45
2017-06-23T13:53:08.445Z,40.35
2017-06-23T13:54:18.090Z,40.35
2017-06-23T13:55:27.711Z,40.35
2017-06-23T13:56:37.028Z,40.35
2017-06-23T13:57:46.648Z,40.35
2017-06-23T13:58:57.286Z,40.35
2017-06-23T14:00:06.920Z,40.35
2017-06-23T14:01:16.857Z,40.35
2017-06-23T14:02:26.551Z,40.35
2017-06-23T14:03:36.820Z,40.35
2017-06-23T14:04:46.794Z,40.35
2017-06-23T14:05:56.722Z,40.45
2017-06-23T14:07:06.631Z,40.16
2017-06-23T14:08:16.854Z,40.45
2017-06-23T14:09:26.771Z,40.35
2017-06-23T14:10:37.186Z,40.35
2017-06-23T14:11:47.529Z,40.35
2017-06-23T14:12:57.867Z,40.35
2017-06-23T14:14:08.119Z,40.45
2017-06-23T14:15:17.431Z,40.35
2017-06-23T14:16:27.363Z,40.35
2017-06-23T14:17:37.583Z,40.55
2017-06-23T14:18:47.503Z,40.25
2017-06-23T14:19:57.421Z,40.35
2017-06-23T14:21:07.354Z,40.35
2017-06-23T14:22:16.985Z,40.25
2017-06-23T14:23:26.603Z,40.35
2017-06-23T14:24:36.217Z,40.35
2017-06-23T14:25:45.834Z,40.45
2017-06-23T14:26:55.762Z,40.35
2017-06-23T14:28:05.691Z,40.35
2017-06-23T14:29:15.914Z,40.25
2017-06-23T14:30:25.540Z,40.35
2017-06-23T14:31:35.154Z,39.96
2017-06-23T14:32:45.084Z,40.35
2017-06-23T14:33:54.395Z,40.45
2017-06-23T14:35:04.008Z,40.35
2017-06-23T14:36:13.939Z,40.35
2017-06-23T14:37:23.878Z,40.45
2017-06-23T14:38:34.108Z,40.35
2017-06-23T14:39:44.030Z,40.35
2017-06-23T14:40:53.650Z,40.35
2017-06-23T14:42:02.954Z,40.06
2017-06-23T14:43:13.176Z,40.35
2017-06-23T14:44:23.398Z,40.35
2017-06-23T14:45:33.624Z,40.45
2017-06-23T14:46:42.931Z,40.35
2017-06-23T14:47:52.860Z,40.35
2017-06-23T14:49:03.085Z,40.45
2017-06-23T14:50:12.998Z,40.35
2017-06-23T14:51:22.617Z,40.35
2017-06-23T14:52:32.532Z,40.35
2017-06-23T14:53:42.462Z,40.35
2017-06-23T14:54:52.386Z,40.35
2017-06-23T14:56:02.638Z,40.45
2017-06-23T14:57:12.871Z,40.45
2017-06-23T14:58:22.491Z,40.06
2017-06-23T14:59:32.114Z,40.25
2017-06-23T15:00:42.350Z,40.16
2017-06-23T15:01:52.583Z,40.35
2017-06-23T15:03:02.501Z,40.16
2017-06-23T15:04:12.464Z,40.35
2017-06-23T15:05:22.122Z,40.55
2017-06-23T15:06:32.038Z,40.35
2017-06-23T15:07:41.661Z,40.16
2017-06-23T15:08:51.301Z,40.35
2017-06-23T15:10:00.913Z,40.16
2017-06-23T15:11:10.238Z,40.45
2017-06-23T15:12:19.847Z,40.45
2017-06-23T15:13:30.078Z,40.35
2017-06-23T15:14:39.686Z,40.45
2017-06-23T15:15:49.610Z,40.35